sensor_id;sensor_type;location;lat;lon;timestamp;P1;durP1;ratioP1;P2;durP2;ratioP2
5923;SDS011;2987;50.884;14.818;2023-05-07T00:01:33;19.83;;;14.23;;
5923;SDS011;2987;50.884;14.818;2023-05-07T00:03:58;21.20;;;15.13;;
5923;SDS011;2987;50.884;14.818;2023-05-07T00:06:24;23.37;;;15.77;;
5923;SDS011;2987;50.884;14.818;2023-05-07T00:08:51;22.33;;;16.33;;
5923;SDS011;2987;50.884;14.818;2023-05-07T00:13:43;22.83;;;16.70;;
5923;SDS011;2987;50.884;14.818;2023-05-07T00:16:09;25.33;;;16.93;;
5923;SDS011;2987;50.884;14.818;2023-05-07T00:21:00;30.23;;;17.93;;
5923;SDS011;2987;50.884;14.818;2023-05-07T00:23:26;29.23;;;18.47;;
5923;SDS011;2987;50.884;14.818;2023-05-07T00:25:52;25.83;;;17.13;;
5923;SDS011;2987;50.884;14.818;2023-05-07T00:28:18;28.27;;;17.47;;
5923;SDS011;2987;50.884;14.818;2023-05-07T00:30:44;28.77;;;17.60;;
5923;SDS011;2987;50.884;14.818;2023-05-07T00:33:10;29.80;;;17.67;;
5923;SDS011;2987;50.884;14.818;2023-05-07T00:35:36;28.90;;;17.57;;
5923;SDS011;2987;50.884;14.818;2023-05-07T00:38:01;27.87;;;16.63;;
5923;SDS011;2987;50.884;14.818;2023-05-07T00:40:27;28.47;;;16.83;;
5923;SDS011;2987;50.884;14.818;2023-05-07T00:42:53;28.47;;;16.47;;
5923;SDS011;2987;50.884;14.818;2023-05-07T00:45:26;24.73;;;15.93;;
5923;SDS011;2987;50.884;14.818;2023-05-07T00:47:57;28.60;;;15.20;;
5923;SDS011;2987;50.884;14.818;2023-05-07T00:50:26;26.47;;;16.10;;
5923;SDS011;2987;50.884;14.818;2023-05-07T00:52:53;27.13;;;15.97;;
5923;SDS011;2987;50.884;14.818;2023-05-07T00:55:20;26.73;;;16.03;;
5923;SDS011;2987;50.884;14.818;2023-05-07T00:57:46;26.90;;;15.90;;
5923;SDS011;2987;50.884;14.818;2023-05-07T01:00:13;29.10;;;16.17;;
5923;SDS011;2987;50.884;14.818;2023-05-07T01:02:39;24.07;;;14.70;;
5923;SDS011;2987;50.884;14.818;2023-05-07T01:05:06;25.97;;;14.53;;
5923;SDS011;2987;50.884;14.818;2023-05-07T01:07:34;20.83;;;13.10;;
5923;SDS011;2987;50.884;14.818;2023-05-07T01:10:01;21.77;;;13.33;;
5923;SDS011;2987;50.884;14.818;2023-05-07T01:12:29;18.97;;;12.80;;
5923;SDS011;2987;50.884;14.818;2023-05-07T01:14:57;22.20;;;13.73;;
5923;SDS011;2987;50.884;14.818;2023-05-07T01:17:23;19.17;;;13.07;;
5923;SDS011;2987;50.884;14.818;2023-05-07T01:19:50;18.83;;;13.10;;
5923;SDS011;2987;50.884;14.818;2023-05-07T01:22:34;19.07;;;12.73;;
5923;SDS011;2987;50.884;14.818;2023-05-07T01:25:02;18.27;;;12.63;;
5923;SDS011;2987;50.884;14.818;2023-05-07T01:27:30;18.50;;;12.33;;
5923;SDS011;2987;50.884;14.818;2023-05-07T01:29:59;18.97;;;12.43;;
5923;SDS011;2987;50.884;14.818;2023-05-07T01:32:29;21.33;;;13.53;;
5923;SDS011;2987;50.884;14.818;2023-05-07T01:34:55;18.40;;;12.30;;
5923;SDS011;2987;50.884;14.818;2023-05-07T01:37:22;17.43;;;11.73;;
5923;SDS011;2987;50.884;14.818;2023-05-07T01:39:50;18.73;;;12.10;;
5923;SDS011;2987;50.884;14.818;2023-05-07T01:42:16;18.43;;;12.00;;
5923;SDS011;2987;50.884;14.818;2023-05-07T01:44:42;18.27;;;12.00;;
5923;SDS011;2987;50.884;14.818;2023-05-07T01:47:08;17.30;;;12.27;;
5923;SDS011;2987;50.884;14.818;2023-05-07T01:49:35;17.27;;;12.30;;
5923;SDS011;2987;50.884;14.818;2023-05-07T01:52:02;18.60;;;12.50;;
5923;SDS011;2987;50.884;14.818;2023-05-07T01:54:28;20.87;;;13.20;;
5923;SDS011;2987;50.884;14.818;2023-05-07T01:56:56;23.50;;;13.47;;
5923;SDS011;2987;50.884;14.818;2023-05-07T01:59:22;23.83;;;15.93;;
5923;SDS011;2987;50.884;14.818;2023-05-07T02:01:49;23.37;;;15.33;;
5923;SDS011;2987;50.884;14.818;2023-05-07T02:04:15;25.47;;;16.67;;
5923;SDS011;2987;50.884;14.818;2023-05-07T02:06:41;29.73;;;18.03;;
5923;SDS011;2987;50.884;14.818;2023-05-07T02:09:09;28.50;;;17.30;;
5923;SDS011;2987;50.884;14.818;2023-05-07T02:11:36;29.77;;;18.97;;
5923;SDS011;2987;50.884;14.818;2023-05-07T02:14:02;28.63;;;18.87;;
5923;SDS011;2987;50.884;14.818;2023-05-07T02:16:28;30.37;;;19.37;;
5923;SDS011;2987;50.884;14.818;2023-05-07T02:18:54;34.60;;;20.43;;
5923;SDS011;2987;50.884;14.818;2023-05-07T02:21:20;33.07;;;20.80;;
5923;SDS011;2987;50.884;14.818;2023-05-07T02:23:46;36.50;;;21.20;;
5923;SDS011;2987;50.884;14.818;2023-05-07T02:26:12;31.63;;;19.93;;
5923;SDS011;2987;50.884;14.818;2023-05-07T02:28:39;31.97;;;20.87;;
5923;SDS011;2987;50.884;14.818;2023-05-07T02:31:05;33.63;;;20.93;;
5923;SDS011;2987;50.884;14.818;2023-05-07T02:33:32;37.97;;;21.33;;
5923;SDS011;2987;50.884;14.818;2023-05-07T02:36:09;33.90;;;21.30;;
5923;SDS011;2987;50.884;14.818;2023-05-07T02:38:44;32.07;;;21.13;;
5923;SDS011;2987;50.884;14.818;2023-05-07T02:41:10;33.97;;;21.13;;
5923;SDS011;2987;50.884;14.818;2023-05-07T02:43:36;38.20;;;22.77;;
5923;SDS011;2987;50.884;14.818;2023-05-07T02:46:02;35.03;;;22.40;;
5923;SDS011;2987;50.884;14.818;2023-05-07T02:48:30;33.80;;;22.03;;
5923;SDS011;2987;50.884;14.818;2023-05-07T02:50:56;33.83;;;21.87;;
5923;SDS011;2987;50.884;14.818;2023-05-07T02:55:59;33.23;;;20.67;;
5923;SDS011;2987;50.884;14.818;2023-05-07T02:58:26;31.63;;;20.20;;
5923;SDS011;2987;50.884;14.818;2023-05-07T03:00:52;34.27;;;21.63;;
5923;SDS011;2987;50.884;14.818;2023-05-07T03:03:29;32.43;;;21.20;;
5923;SDS011;2987;50.884;14.818;2023-05-07T03:05:55;32.43;;;21.00;;
5923;SDS011;2987;50.884;14.818;2023-05-07T03:08:21;32.40;;;21.10;;
5923;SDS011;2987;50.884;14.818;2023-05-07T03:10:47;31.90;;;19.90;;
5923;SDS011;2987;50.884;14.818;2023-05-07T03:13:13;31.67;;;20.57;;
5923;SDS011;2987;50.884;14.818;2023-05-07T03:15:40;30.80;;;20.53;;
5923;SDS011;2987;50.884;14.818;2023-05-07T03:18:06;28.57;;;20.10;;
5923;SDS011;2987;50.884;14.818;2023-05-07T03:20:32;29.77;;;21.03;;
5923;SDS011;2987;50.884;14.818;2023-05-07T03:22:58;28.03;;;20.33;;
5923;SDS011;2987;50.884;14.818;2023-05-07T03:25:24;31.03;;;21.53;;
5923;SDS011;2987;50.884;14.818;2023-05-07T03:27:50;28.67;;;19.70;;
5923;SDS011;2987;50.884;14.818;2023-05-07T03:30:19;31.60;;;19.37;;
5923;SDS011;2987;50.884;14.818;2023-05-07T03:32:45;28.90;;;20.17;;
5923;SDS011;2987;50.884;14.818;2023-05-07T03:35:12;32.87;;;21.13;;
5923;SDS011;2987;50.884;14.818;2023-05-07T03:37:39;31.43;;;20.57;;
5923;SDS011;2987;50.884;14.818;2023-05-07T03:40:05;33.67;;;20.90;;
5923;SDS011;2987;50.884;14.818;2023-05-07T03:42:41;34.03;;;21.47;;
5923;SDS011;2987;50.884;14.818;2023-05-07T03:45:07;31.43;;;20.50;;
5923;SDS011;2987;50.884;14.818;2023-05-07T03:47:34;34.83;;;20.93;;
5923;SDS011;2987;50.884;14.818;2023-05-07T03:50:00;32.63;;;19.90;;
5923;SDS011;2987;50.884;14.818;2023-05-07T03:52:26;30.30;;;18.97;;
5923;SDS011;2987;50.884;14.818;2023-05-07T03:54:55;36.23;;;21.67;;
5923;SDS011;2987;50.884;14.818;2023-05-07T03:57:21;31.17;;;19.53;;
5923;SDS011;2987;50.884;14.818;2023-05-07T03:59:47;34.63;;;19.63;;
5923;SDS011;2987;50.884;14.818;2023-05-07T04:02:13;33.33;;;19.33;;
5923;SDS011;2987;50.884;14.818;2023-05-07T04:04:39;29.10;;;18.53;;
5923;SDS011;2987;50.884;14.818;2023-05-07T04:07:05;32.87;;;20.00;;
5923;SDS011;2987;50.884;14.818;2023-05-07T04:09:37;32.43;;;18.43;;
5923;SDS011;2987;50.884;14.818;2023-05-07T04:12:03;26.87;;;18.20;;
5923;SDS011;2987;50.884;14.818;2023-05-07T04:14:30;26.13;;;18.40;;
5923;SDS011;2987;50.884;14.818;2023-05-07T04:16:58;26.97;;;17.43;;
5923;SDS011;2987;50.884;14.818;2023-05-07T04:19:25;25.73;;;17.20;;
5923;SDS011;2987;50.884;14.818;2023-05-07T04:21:52;29.77;;;18.10;;
5923;SDS011;2987;50.884;14.818;2023-05-07T04:24:18;27.03;;;17.37;;
5923;SDS011;2987;50.884;14.818;2023-05-07T04:26:45;28.77;;;17.00;;
5923;SDS011;2987;50.884;14.818;2023-05-07T04:29:11;23.97;;;16.57;;
5923;SDS011;2987;50.884;14.818;2023-05-07T04:31:37;25.20;;;16.53;;
5923;SDS011;2987;50.884;14.818;2023-05-07T04:34:03;27.33;;;17.33;;
5923;SDS011;2987;50.884;14.818;2023-05-07T04:36:30;26.47;;;17.30;;
5923;SDS011;2987;50.884;14.818;2023-05-07T04:39:00;22.93;;;16.97;;
5923;SDS011;2987;50.884;14.818;2023-05-07T04:41:28;27.37;;;16.13;;
5923;SDS011;2987;50.884;14.818;2023-05-07T04:43:54;25.40;;;16.30;;
5923;SDS011;2987;50.884;14.818;2023-05-07T04:46:22;21.80;;;15.63;;
5923;SDS011;2987;50.884;14.818;2023-05-07T04:48:49;24.10;;;15.37;;
5923;SDS011;2987;50.884;14.818;2023-05-07T04:51:15;20.77;;;15.97;;
5923;SDS011;2987;50.884;14.818;2023-05-07T04:53:41;24.43;;;15.37;;
5923;SDS011;2987;50.884;14.818;2023-05-07T04:56:08;21.37;;;15.20;;
5923;SDS011;2987;50.884;14.818;2023-05-07T04:58:39;23.27;;;15.03;;
5923;SDS011;2987;50.884;14.818;2023-05-07T05:01:05;20.90;;;14.70;;
5923;SDS011;2987;50.884;14.818;2023-05-07T05:03:31;22.57;;;16.00;;
5923;SDS011;2987;50.884;14.818;2023-05-07T05:05:58;19.97;;;14.87;;
5923;SDS011;2987;50.884;14.818;2023-05-07T05:08:27;17.77;;;13.97;;
5923;SDS011;2987;50.884;14.818;2023-05-07T05:10:56;17.30;;;13.10;;
5923;SDS011;2987;50.884;14.818;2023-05-07T05:13:22;16.83;;;13.27;;
5923;SDS011;2987;50.884;14.818;2023-05-07T05:15:48;20.30;;;13.13;;
5923;SDS011;2987;50.884;14.818;2023-05-07T05:18:15;16.30;;;12.30;;
5923;SDS011;2987;50.884;14.818;2023-05-07T05:20:41;17.43;;;12.80;;
5923;SDS011;2987;50.884;14.818;2023-05-07T05:23:07;15.80;;;12.23;;
5923;SDS011;2987;50.884;14.818;2023-05-07T05:25:33;16.60;;;11.57;;
5923;SDS011;2987;50.884;14.818;2023-05-07T05:28:00;16.73;;;12.03;;
5923;SDS011;2987;50.884;14.818;2023-05-07T05:30:27;15.17;;;10.37;;
5923;SDS011;2987;50.884;14.818;2023-05-07T05:32:53;15.23;;;11.90;;
5923;SDS011;2987;50.884;14.818;2023-05-07T05:35:19;15.27;;;11.90;;
5923;SDS011;2987;50.884;14.818;2023-05-07T05:37:45;17.23;;;12.07;;
5923;SDS011;2987;50.884;14.818;2023-05-07T05:40:12;15.80;;;11.90;;
5923;SDS011;2987;50.884;14.818;2023-05-07T05:42:38;13.40;;;10.50;;
5923;SDS011;2987;50.884;14.818;2023-05-07T05:45:04;11.33;;;9.83;;
5923;SDS011;2987;50.884;14.818;2023-05-07T05:47:32;10.33;;;8.03;;
5923;SDS011;2987;50.884;14.818;2023-05-07T05:49:59;9.60;;;8.53;;
5923;SDS011;2987;50.884;14.818;2023-05-07T05:52:25;9.40;;;8.40;;
5923;SDS011;2987;50.884;14.818;2023-05-07T05:54:51;9.03;;;6.70;;
5923;SDS011;2987;50.884;14.818;2023-05-07T05:57:17;8.23;;;7.10;;
5923;SDS011;2987;50.884;14.818;2023-05-07T05:59:44;7.63;;;6.27;;
5923;SDS011;2987;50.884;14.818;2023-05-07T06:04:38;6.43;;;5.70;;
5923;SDS011;2987;50.884;14.818;2023-05-07T06:07:04;8.90;;;5.40;;
5923;SDS011;2987;50.884;14.818;2023-05-07T06:09:30;5.60;;;5.00;;
5923;SDS011;2987;50.884;14.818;2023-05-07T06:11:56;5.10;;;4.60;;
5923;SDS011;2987;50.884;14.818;2023-05-07T06:14:22;5.80;;;5.10;;
5923;SDS011;2987;50.884;14.818;2023-05-07T06:16:48;10.17;;;6.47;;
5923;SDS011;2987;50.884;14.818;2023-05-07T06:19:14;7.77;;;6.30;;
5923;SDS011;2987;50.884;14.818;2023-05-07T06:21:43;9.23;;;4.83;;
5923;SDS011;2987;50.884;14.818;2023-05-07T06:24:09;6.60;;;5.90;;
5923;SDS011;2987;50.884;14.818;2023-05-07T06:26:37;5.97;;;4.80;;
5923;SDS011;2987;50.884;14.818;2023-05-07T06:29:03;5.53;;;4.20;;
5923;SDS011;2987;50.884;14.818;2023-05-07T06:31:30;6.03;;;5.00;;
5923;SDS011;2987;50.884;14.818;2023-05-07T06:34:01;4.50;;;4.10;;
5923;SDS011;2987;50.884;14.818;2023-05-07T06:36:34;6.80;;;4.30;;
5923;SDS011;2987;50.884;14.818;2023-05-07T06:39:07;4.30;;;3.87;;
5923;SDS011;2987;50.884;14.818;2023-05-07T06:41:33;4.10;;;3.70;;
5923;SDS011;2987;50.884;14.818;2023-05-07T06:44:05;5.37;;;3.60;;
5923;SDS011;2987;50.884;14.818;2023-05-07T06:46:37;4.40;;;4.00;;
5923;SDS011;2987;50.884;14.818;2023-05-07T06:49:05;6.57;;;4.23;;
5923;SDS011;2987;50.884;14.818;2023-05-07T06:51:31;4.33;;;3.93;;
5923;SDS011;2987;50.884;14.818;2023-05-07T06:54:01;4.50;;;4.10;;
5923;SDS011;2987;50.884;14.818;2023-05-07T06:56:27;5.00;;;4.27;;
5923;SDS011;2987;50.884;14.818;2023-05-07T06:58:53;4.80;;;4.33;;
5923;SDS011;2987;50.884;14.818;2023-05-07T07:01:20;5.23;;;4.73;;
5923;SDS011;2987;50.884;14.818;2023-05-07T07:03:46;5.33;;;4.63;;
5923;SDS011;2987;50.884;14.818;2023-05-07T07:06:12;5.27;;;4.80;;
5923;SDS011;2987;50.884;14.818;2023-05-07T07:08:38;5.10;;;4.57;;
5923;SDS011;2987;50.884;14.818;2023-05-07T07:11:05;5.67;;;4.87;;
5923;SDS011;2987;50.884;14.818;2023-05-07T07:13:32;5.37;;;4.80;;
5923;SDS011;2987;50.884;14.818;2023-05-07T07:15:58;7.00;;;4.77;;
5923;SDS011;2987;50.884;14.818;2023-05-07T07:18:24;4.77;;;4.37;;
5923;SDS011;2987;50.884;14.818;2023-05-07T07:20:51;8.23;;;4.90;;
5923;SDS011;2987;50.884;14.818;2023-05-07T07:23:17;7.00;;;5.03;;
5923;SDS011;2987;50.884;14.818;2023-05-07T07:25:43;5.33;;;4.63;;
5923;SDS011;2987;50.884;14.818;2023-05-07T07:28:10;5.90;;;5.27;;
5923;SDS011;2987;50.884;14.818;2023-05-07T07:30:37;7.73;;;5.20;;
5923;SDS011;2987;50.884;14.818;2023-05-07T07:33:03;5.40;;;4.90;;
5923;SDS011;2987;50.884;14.818;2023-05-07T07:35:33;5.33;;;4.80;;
5923;SDS011;2987;50.884;14.818;2023-05-07T07:38:00;6.07;;;4.70;;
5923;SDS011;2987;50.884;14.818;2023-05-07T07:40:28;4.50;;;4.10;;
5923;SDS011;2987;50.884;14.818;2023-05-07T07:42:54;5.03;;;4.30;;
5923;SDS011;2987;50.884;14.818;2023-05-07T07:45:20;5.43;;;4.93;;
5923;SDS011;2987;50.884;14.818;2023-05-07T07:47:48;5.03;;;4.53;;
5923;SDS011;2987;50.884;14.818;2023-05-07T07:50:14;5.93;;;5.30;;
5923;SDS011;2987;50.884;14.818;2023-05-07T07:52:41;5.50;;;4.93;;
5923;SDS011;2987;50.884;14.818;2023-05-07T07:55:08;6.43;;;5.10;;
5923;SDS011;2987;50.884;14.818;2023-05-07T07:57:35;5.57;;;5.07;;
5923;SDS011;2987;50.884;14.818;2023-05-07T08:00:01;4.90;;;4.50;;
5923;SDS011;2987;50.884;14.818;2023-05-07T08:02:31;6.00;;;5.20;;
5923;SDS011;2987;50.884;14.818;2023-05-07T08:04:57;4.60;;;4.20;;
5923;SDS011;2987;50.884;14.818;2023-05-07T08:07:23;5.17;;;4.67;;
5923;SDS011;2987;50.884;14.818;2023-05-07T08:09:49;5.10;;;4.60;;
5923;SDS011;2987;50.884;14.818;2023-05-07T08:12:18;5.03;;;4.60;;
5923;SDS011;2987;50.884;14.818;2023-05-07T08:14:45;6.10;;;4.93;;
5923;SDS011;2987;50.884;14.818;2023-05-07T08:17:11;5.40;;;4.90;;
5923;SDS011;2987;50.884;14.818;2023-05-07T08:19:38;4.80;;;4.30;;
5923;SDS011;2987;50.884;14.818;2023-05-07T08:22:06;7.13;;;5.80;;
5923;SDS011;2987;50.884;14.818;2023-05-07T08:24:33;5.73;;;4.60;;
5923;SDS011;2987;50.884;14.818;2023-05-07T08:26:59;8.40;;;6.47;;
5923;SDS011;2987;50.884;14.818;2023-05-07T08:29:25;5.53;;;5.03;;
5923;SDS011;2987;50.884;14.818;2023-05-07T08:31:52;5.57;;;4.90;;
5923;SDS011;2987;50.884;14.818;2023-05-07T08:34:18;6.83;;;4.63;;
5923;SDS011;2987;50.884;14.818;2023-05-07T08:36:46;8.87;;;6.13;;
5923;SDS011;2987;50.884;14.818;2023-05-07T08:39:16;6.57;;;5.57;;
5923;SDS011;2987;50.884;14.818;2023-05-07T08:41:45;6.93;;;6.10;;
5923;SDS011;2987;50.884;14.818;2023-05-07T08:44:13;4.60;;;4.20;;
5923;SDS011;2987;50.884;14.818;2023-05-07T08:46:40;8.13;;;4.93;;
5923;SDS011;2987;50.884;14.818;2023-05-07T08:49:08;6.10;;;4.63;;
5923;SDS011;2987;50.884;14.818;2023-05-07T08:51:35;7.27;;;5.53;;
5923;SDS011;2987;50.884;14.818;2023-05-07T08:54:01;10.37;;;6.43;;
5923;SDS011;2987;50.884;14.818;2023-05-07T08:56:31;6.53;;;5.90;;
5923;SDS011;2987;50.884;14.818;2023-05-07T08:58:57;5.83;;;5.27;;
5923;SDS011;2987;50.884;14.818;2023-05-07T09:01:26;6.53;;;5.83;;
5923;SDS011;2987;50.884;14.818;2023-05-07T09:03:54;9.50;;;7.20;;
5923;SDS011;2987;50.884;14.818;2023-05-07T09:06:22;8.73;;;5.77;;
5923;SDS011;2987;50.884;14.818;2023-05-07T09:08:50;10.27;;;6.13;;
5923;SDS011;2987;50.884;14.818;2023-05-07T09:11:21;9.07;;;6.37;;
5923;SDS011;2987;50.884;14.818;2023-05-07T09:13:49;10.13;;;7.13;;
5923;SDS011;2987;50.884;14.818;2023-05-07T09:16:20;6.23;;;5.63;;
5923;SDS011;2987;50.884;14.818;2023-05-07T09:18:48;5.73;;;5.23;;
5923;SDS011;2987;50.884;14.818;2023-05-07T09:21:17;8.27;;;5.00;;
5923;SDS011;2987;50.884;14.818;2023-05-07T09:23:54;5.30;;;4.80;;
5923;SDS011;2987;50.884;14.818;2023-05-07T09:26:25;6.50;;;5.33;;
5923;SDS011;2987;50.884;14.818;2023-05-07T09:28:54;5.40;;;4.90;;
5923;SDS011;2987;50.884;14.818;2023-05-07T09:31:20;6.33;;;5.73;;
5923;SDS011;2987;50.884;14.818;2023-05-07T09:33:48;4.87;;;4.33;;
5923;SDS011;2987;50.884;14.818;2023-05-07T09:36:15;8.83;;;6.13;;
5923;SDS011;2987;50.884;14.818;2023-05-07T09:38:43;6.63;;;5.30;;
5923;SDS011;2987;50.884;14.818;2023-05-07T09:41:11;5.33;;;4.83;;
5923;SDS011;2987;50.884;14.818;2023-05-07T09:43:57;7.33;;;5.10;;
5923;SDS011;2987;50.884;14.818;2023-05-07T09:46:31;4.90;;;4.50;;
5923;SDS011;2987;50.884;14.818;2023-05-07T09:49:04;7.70;;;4.70;;
5923;SDS011;2987;50.884;14.818;2023-05-07T09:51:39;7.47;;;4.90;;
5923;SDS011;2987;50.884;14.818;2023-05-07T09:54:11;7.30;;;5.43;;
5923;SDS011;2987;50.884;14.818;2023-05-07T09:56:40;5.20;;;4.13;;
5923;SDS011;2987;50.884;14.818;2023-05-07T09:59:13;6.93;;;4.37;;
5923;SDS011;2987;50.884;14.818;2023-05-07T10:01:41;6.47;;;4.67;;
5923;SDS011;2987;50.884;14.818;2023-05-07T10:04:08;6.90;;;4.57;;
5923;SDS011;2987;50.884;14.818;2023-05-07T10:06:36;8.50;;;4.97;;
5923;SDS011;2987;50.884;14.818;2023-05-07T10:09:04;7.20;;;4.93;;
5923;SDS011;2987;50.884;14.818;2023-05-07T10:11:32;5.73;;;4.87;;
5923;SDS011;2987;50.884;14.818;2023-05-07T10:14:01;6.97;;;4.70;;
5923;SDS011;2987;50.884;14.818;2023-05-07T10:16:33;8.90;;;4.43;;
5923;SDS011;2987;50.884;14.818;2023-05-07T10:19:03;4.50;;;4.10;;
5923;SDS011;2987;50.884;14.818;2023-05-07T10:21:32;6.07;;;4.07;;
5923;SDS011;2987;50.884;14.818;2023-05-07T10:26:52;5.03;;;4.63;;
5923;SDS011;2987;50.884;14.818;2023-05-07T10:29:32;5.20;;;4.80;;
5923;SDS011;2987;50.884;14.818;2023-05-07T10:37:16;6.07;;;5.00;;
5923;SDS011;2987;50.884;14.818;2023-05-07T10:39:44;4.90;;;4.50;;
5923;SDS011;2987;50.884;14.818;2023-05-07T10:44:41;5.87;;;4.50;;
5923;SDS011;2987;50.884;14.818;2023-05-07T10:47:13;6.43;;;4.50;;
5923;SDS011;2987;50.884;14.818;2023-05-07T10:52:30;7.53;;;4.80;;
5923;SDS011;2987;50.884;14.818;2023-05-07T10:55:18;5.07;;;4.57;;
5923;SDS011;2987;50.884;14.818;2023-05-07T10:58:23;4.93;;;4.53;;
5923;SDS011;2987;50.884;14.818;2023-05-07T11:01:03;6.00;;;5.23;;
5923;SDS011;2987;50.884;14.818;2023-05-07T11:03:56;8.57;;;5.63;;
5923;SDS011;2987;50.884;14.818;2023-05-07T11:06:38;5.43;;;4.70;;
5923;SDS011;2987;50.884;14.818;2023-05-07T11:09:08;5.47;;;4.97;;
5923;SDS011;2987;50.884;14.818;2023-05-07T11:11:43;6.57;;;4.83;;
5923;SDS011;2987;50.884;14.818;2023-05-07T11:14:37;5.00;;;4.50;;
5923;SDS011;2987;50.884;14.818;2023-05-07T11:17:13;13.00;;;5.17;;
5923;SDS011;2987;50.884;14.818;2023-05-07T11:19:51;6.00;;;4.60;;
5923;SDS011;2987;50.884;14.818;2023-05-07T11:22:37;5.93;;;4.40;;
5923;SDS011;2987;50.884;14.818;2023-05-07T11:25:17;9.37;;;4.60;;
5923;SDS011;2987;50.884;14.818;2023-05-07T11:27:48;10.77;;;4.77;;
5923;SDS011;2987;50.884;14.818;2023-05-07T11:30:18;5.70;;;4.73;;
5923;SDS011;2987;50.884;14.818;2023-05-07T11:32:44;6.47;;;3.70;;
5923;SDS011;2987;50.884;14.818;2023-05-07T11:35:15;4.33;;;3.93;;
5923;SDS011;2987;50.884;14.818;2023-05-07T11:37:43;6.43;;;3.47;;
5923;SDS011;2987;50.884;14.818;2023-05-07T11:40:11;4.63;;;3.80;;
5923;SDS011;2987;50.884;14.818;2023-05-07T11:42:39;5.30;;;3.53;;
5923;SDS011;2987;50.884;14.818;2023-05-07T11:45:08;5.73;;;4.40;;
5923;SDS011;2987;50.884;14.818;2023-05-07T11:47:35;3.60;;;3.20;;
5923;SDS011;2987;50.884;14.818;2023-05-07T11:50:03;3.53;;;3.23;;
5923;SDS011;2987;50.884;14.818;2023-05-07T11:52:32;4.87;;;4.07;;
5923;SDS011;2987;50.884;14.818;2023-05-07T11:54:59;5.93;;;3.73;;
5923;SDS011;2987;50.884;14.818;2023-05-07T11:57:27;5.13;;;3.40;;
5923;SDS011;2987;50.884;14.818;2023-05-07T11:59:55;5.27;;;3.50;;
5923;SDS011;2987;50.884;14.818;2023-05-07T12:02:22;6.00;;;4.20;;
5923;SDS011;2987;50.884;14.818;2023-05-07T12:04:50;4.17;;;3.70;;
5923;SDS011;2987;50.884;14.818;2023-05-07T12:07:17;6.67;;;3.67;;
5923;SDS011;2987;50.884;14.818;2023-05-07T12:09:44;5.63;;;3.60;;
5923;SDS011;2987;50.884;14.818;2023-05-07T12:12:11;7.10;;;3.53;;
5923;SDS011;2987;50.884;14.818;2023-05-07T12:14:39;5.20;;;3.80;;
5923;SDS011;2987;50.884;14.818;2023-05-07T12:17:06;4.60;;;3.90;;
5923;SDS011;2987;50.884;14.818;2023-05-07T12:19:34;7.13;;;4.73;;
5923;SDS011;2987;50.884;14.818;2023-05-07T12:22:02;4.70;;;4.20;;
5923;SDS011;2987;50.884;14.818;2023-05-07T12:24:30;4.73;;;4.33;;
5923;SDS011;2987;50.884;14.818;2023-05-07T12:27:11;6.53;;;3.87;;
5923;SDS011;2987;50.884;14.818;2023-05-07T12:29:37;5.93;;;4.00;;
5923;SDS011;2987;50.884;14.818;2023-05-07T12:32:06;4.20;;;3.80;;
5923;SDS011;2987;50.884;14.818;2023-05-07T12:34:38;6.27;;;4.10;;
5923;SDS011;2987;50.884;14.818;2023-05-07T12:37:05;9.97;;;4.13;;
5923;SDS011;2987;50.884;14.818;2023-05-07T12:41:58;5.30;;;4.30;;
5923;SDS011;2987;50.884;14.818;2023-05-07T12:44:25;5.33;;;4.27;;
5923;SDS011;2987;50.884;14.818;2023-05-07T12:46:56;4.60;;;3.70;;
5923;SDS011;2987;50.884;14.818;2023-05-07T12:49:22;9.83;;;5.70;;
5923;SDS011;2987;50.884;14.818;2023-05-07T12:51:50;6.40;;;3.73;;
5923;SDS011;2987;50.884;14.818;2023-05-07T12:54:32;4.67;;;4.23;;
5923;SDS011;2987;50.884;14.818;2023-05-07T12:57:02;4.37;;;3.90;;
5923;SDS011;2987;50.884;14.818;2023-05-07T12:59:31;5.87;;;3.17;;
5923;SDS011;2987;50.884;14.818;2023-05-07T13:02:12;4.43;;;3.10;;
5923;SDS011;2987;50.884;14.818;2023-05-07T13:04:40;6.17;;;3.03;;
5923;SDS011;2987;50.884;14.818;2023-05-07T13:07:06;2.83;;;2.60;;
5923;SDS011;2987;50.884;14.818;2023-05-07T13:09:32;74.87;;;6.20;;
5923;SDS011;2987;50.884;14.818;2023-05-07T13:11:58;2.70;;;2.50;;
5923;SDS011;2987;50.884;14.818;2023-05-07T13:14:26;5.33;;;3.13;;
5923;SDS011;2987;50.884;14.818;2023-05-07T13:16:52;3.53;;;3.03;;
5923;SDS011;2987;50.884;14.818;2023-05-07T13:19:18;7.03;;;3.50;;
5923;SDS011;2987;50.884;14.818;2023-05-07T13:21:44;3.10;;;2.90;;
5923;SDS011;2987;50.884;14.818;2023-05-07T13:24:10;5.03;;;3.40;;
5923;SDS011;2987;50.884;14.818;2023-05-07T13:26:36;6.17;;;3.40;;
5923;SDS011;2987;50.884;14.818;2023-05-07T13:29:02;3.30;;;3.03;;
5923;SDS011;2987;50.884;14.818;2023-05-07T13:31:28;3.17;;;2.73;;
5923;SDS011;2987;50.884;14.818;2023-05-07T13:33:53;5.30;;;3.30;;
5923;SDS011;2987;50.884;14.818;2023-05-07T13:36:21;3.77;;;3.47;;
5923;SDS011;2987;50.884;14.818;2023-05-07T13:38:47;4.60;;;3.70;;
5923;SDS011;2987;50.884;14.818;2023-05-07T13:41:13;3.50;;;3.13;;
5923;SDS011;2987;50.884;14.818;2023-05-07T13:43:40;4.70;;;4.03;;
5923;SDS011;2987;50.884;14.818;2023-05-07T13:46:06;4.20;;;3.80;;
5923;SDS011;2987;50.884;14.818;2023-05-07T13:48:32;11.23;;;4.70;;
5923;SDS011;2987;50.884;14.818;2023-05-07T13:50:58;3.47;;;3.20;;
5923;SDS011;2987;50.884;14.818;2023-05-07T13:53:23;4.70;;;3.87;;
5923;SDS011;2987;50.884;14.818;2023-05-07T13:55:49;4.43;;;4.03;;
5923;SDS011;2987;50.884;14.818;2023-05-07T13:58:15;4.27;;;3.43;;
5923;SDS011;2987;50.884;14.818;2023-05-07T14:00:41;5.00;;;3.57;;
5923;SDS011;2987;50.884;14.818;2023-05-07T14:03:07;5.87;;;4.67;;
5923;SDS011;2987;50.884;14.818;2023-05-07T14:05:33;9.43;;;4.30;;
5923;SDS011;2987;50.884;14.818;2023-05-07T14:08:00;7.97;;;3.50;;
5923;SDS011;2987;50.884;14.818;2023-05-07T14:10:26;5.63;;;4.27;;
5923;SDS011;2987;50.884;14.818;2023-05-07T14:12:52;3.80;;;3.40;;
5923;SDS011;2987;50.884;14.818;2023-05-07T14:15:18;3.83;;;3.53;;
5923;SDS011;2987;50.884;14.818;2023-05-07T14:17:44;4.40;;;4.07;;
5923;SDS011;2987;50.884;14.818;2023-05-07T14:20:10;6.03;;;4.60;;
5923;SDS011;2987;50.884;14.818;2023-05-07T14:22:37;3.97;;;3.33;;
5923;SDS011;2987;50.884;14.818;2023-05-07T14:25:03;3.67;;;3.33;;
5923;SDS011;2987;50.884;14.818;2023-05-07T14:27:29;17.00;;;4.00;;
5923;SDS011;2987;50.884;14.818;2023-05-07T14:29:55;3.97;;;3.60;;
5923;SDS011;2987;50.884;14.818;2023-05-07T14:32:21;5.83;;;3.80;;
5923;SDS011;2987;50.884;14.818;2023-05-07T14:34:47;3.67;;;3.37;;
5923;SDS011;2987;50.884;14.818;2023-05-07T14:37:13;4.00;;;3.60;;
5923;SDS011;2987;50.884;14.818;2023-05-07T14:39:39;6.67;;;4.13;;
5923;SDS011;2987;50.884;14.818;2023-05-07T14:42:05;10.83;;;4.93;;
5923;SDS011;2987;50.884;14.818;2023-05-07T14:44:34;8.07;;;5.00;;
5923;SDS011;2987;50.884;14.818;2023-05-07T14:47:00;5.40;;;4.90;;
5923;SDS011;2987;50.884;14.818;2023-05-07T14:49:26;8.60;;;5.43;;
5923;SDS011;2987;50.884;14.818;2023-05-07T14:51:53;6.60;;;5.50;;
5923;SDS011;2987;50.884;14.818;2023-05-07T14:54:19;11.23;;;5.80;;
5923;SDS011;2987;50.884;14.818;2023-05-07T14:56:45;7.83;;;5.63;;
5923;SDS011;2987;50.884;14.818;2023-05-07T14:59:11;6.33;;;5.73;;
5923;SDS011;2987;50.884;14.818;2023-05-07T15:01:37;7.63;;;5.83;;
5923;SDS011;2987;50.884;14.818;2023-05-07T15:04:03;11.47;;;6.70;;
5923;SDS011;2987;50.884;14.818;2023-05-07T15:06:30;11.87;;;6.50;;
5923;SDS011;2987;50.884;14.818;2023-05-07T15:08:57;6.93;;;6.13;;
5923;SDS011;2987;50.884;14.818;2023-05-07T15:11:23;7.97;;;6.30;;
5923;SDS011;2987;50.884;14.818;2023-05-07T15:13:49;6.73;;;6.13;;
5923;SDS011;2987;50.884;14.818;2023-05-07T15:16:15;7.87;;;7.00;;
5923;SDS011;2987;50.884;14.818;2023-05-07T15:18:42;10.97;;;7.40;;
5923;SDS011;2987;50.884;14.818;2023-05-07T15:21:08;7.97;;;7.17;;